Christian Aaronson

Recruteur en chef - Nashville SC
20 Nov 2027
Samedi
Processus

Personnalité

Adaptabilité (5) Ambition (10) Controverse (16) Loyauté (2) Pression (18) Professionnalisme (7) Sportivité (6) Tempérament (19)

Profil

Style d'entraînement Démocratique
Diplôme National A
Détermination 8
Gestion des joueurs 8
Motivation 8
Discipline 8
Satisfaction professionnelle
100%
Fatigue
0%
Rôle Recruteur en chef
Salaire 58.9K p/s
Contrat 14.03.2028

Performance

Comportement Bon
Efficacité de l'entraînement
46%
Développement des joueurs
60%
Prévention des blessures
60%
Mise en place tactique
40%

Événements récents

A évalué un joueur maintenant
A participé à une réunion de recrutement 7j
A évalué un joueur 7j
A évalué un joueur 7j
A évalué un joueur 14j
A évalué un joueur 14j
A évalué un joueur 14j
A évalué un joueur 14j

Suivi en cours

146
Joueur Club Statut Capacité Confiance Observé Dernière observation Dernier vote
Duncan McGuire Houston Dynamo Actif 113 / 117 40% 3 19.11.2027 -
João Klauss LA Galaxy Actif 144 / 117 40% 4 19.11.2027 -
Tiziano Dornell Almagro Actif 107 / 115 40% 5 15.11.2027 -
Luca Martínez Dupuy Godoy Cruz Actif 119 / 115 40% 3 15.11.2027 -
Jesus Ferreira Seattle Sounders Actif 139 / 128 40% 6 12.11.2027 -
Juan David Rueda Alianza Petrolera Actif 112 / 115 40% 3 12.11.2027 -
Louis Munteanu DC United Actif 139 / 125 40% 5 09.11.2027 -
Agustín Hausch Caracas Actif 120 / 117 40% 1 09.11.2027 -
Morgan Guilavogui Real Salt Lake Actif 138 / 120 40% 5 07.11.2027 -
Jonatan Torres Cerro Porteno Actif 123 / 115 40% 3 07.11.2027 -
Tadeo Allende Inter Miami CF Actif 125 / 130 40% 4 06.11.2027 -
Rafael Navarro St. Louis CITY SC Actif 143 / 133 40% 3 05.11.2027 -
Lisandro Cabrera Maipú Actif 124 / 109 40% 1 05.11.2027 -
Leonardo Campana New England Revolution Actif 141 / 127 40% 2 03.11.2027 -
Ibrahim Aliyu Houston Dynamo Actif 114 / 120 40% 3 03.11.2027 -
Marco Miori Alvarado Actif 122 / 107 40% 2 02.11.2027 -
Talles Magno New York City Actif 141 / 128 40% 1 30.10.2027 -
Maclyn Biokpo Jenewari Rivers United Actif 87 / 114 40% 1 28.10.2027 -
Alexis Cuello San Lorenzo Actif 121 / 128 40% 2 27.10.2027 -
Luca Franco Arsenal Actif 95 / 114 40% 1 27.10.2027 -
Matheus Nascimento Houston Dynamo Actif 105 / 115 40% 1 24.10.2027 -
Jeong Sang-Bin St. Louis CITY SC Actif 121 / 115 40% 2 23.10.2027 -
Luca Langoni New England Revolution Actif 143 / 140 40% 3 22.10.2027 -
Enzo González Defensores Actif 94 / 105 40% 2 22.10.2027 -
Jonás Acevedo Instituto Actif 139 / 129 40% 1 20.10.2027 -
Carlos Gugenheim Almirante Brown Actif 122 / 110 40% 2 16.10.2027 -
Ignacio Ramírez Newell's Old Boys Actif 136 / 119 40% 1 16.10.2027 -
Gonzalo Plata Rosenborg Actif 153 / 122 40% 1 15.10.2027 -
Alejo Cruz Juventud Actif 111 / 118 40% 1 15.10.2027 -
Liel Abada Charlotte Football Club Actif 125 / 138 40% 5 11.10.2027 -
Kévin Denkey FC Cincinnati Actif 134 / 128 40% 7 10.10.2027 -
Augusto Berrondo Tristán Suárez Actif 103 / 106 40% 3 08.10.2027 -
Tomás Chancalay Minnesota United FC Actif 124 / 124 40% 1 08.10.2027 -
Santiago Sala Güemes Actif 116 / 108 40% 1 07.10.2027 -
Juan Rocca Gimnasia y Tiro Actif 102 / 104 40% 1 03.10.2027 -
Breel Embolo Atlanta United FC Actif 149 / 140 40% 4 25.09.2027 -
Marcelo Torres Gimnasia La Plata Actif 132 / 117 40% 2 21.09.2027 -
Kelvin Yeboah Minnesota United FC Actif 119 / 128 40% 6 19.09.2027 -
Bruno Damiani Philadelphia Union Actif 116 / 117 40% 2 19.09.2027 -
Máximo Alonso Central Espanol Actif 126 / 110 40% 1 15.09.2027 -
Martín Ojeda Orlando City Actif 137 / 133 40% 2 14.09.2027 -
Mauricio Márquez Caracas Actif 93 / 96 40% 1 13.09.2027 -
Fernando Mimbacas Juventud Actif 121 / 117 40% 1 13.09.2027 -
Eric Ramírez Carabobo Actif 107 / 113 40% 1 11.09.2027 -
Bénie Traoré New York City Actif 131 / 121 40% 3 06.09.2027 -
Gavin Turner DC United Actif 104 / 103 44% 1 02.08.2027 -
Sam Greenwood Bristol City Actif 131 / 127 40% 1 07.07.2027 -
Gladson Sulemana Liberty Professionals Actif 109 / 97 40% 2 29.03.2027 -
Luca Bombino Stoke City Actif 90 / 108 40% 1 29.03.2027 -
Peter Amidu Acquah Asante Kotoko Actif 85 / 111 40% 1 20.02.2027 -
Kirill Glebov CSKA Moscow Actif 113 / 117 40% 1 20.02.2027 -
Aune Heggebø West Bromwich Albion Actif 117 / 118 40% 4 14.02.2027 -
Abu Kamara Portsmouth Actif 124 / 122 40% 1 14.02.2027 -
Victor Ehibe Gazelle Garoua Actif 91 / 81 40% 3 12.02.2027 Observer
Johan Manzambi Manchester United Actif 127 / 145 40% 2 12.02.2027 Plus d'infos
Mohammed Wakaso Hasaacas Actif 110 / 114 40% 2 10.02.2027 -
Zian Flemming Ipswich Town Actif 132 / 127 40% 3 08.02.2027 -
Davis Keillor-Dunn Wrexham Actif 122 / 124 40% 2 08.02.2027 -
Jovon Makama Norwich City Actif 123 / 121 40% 2 06.02.2027 -
George Hirst Stoke City Actif 137 / 127 40% 1 06.02.2027 -
Bertrand Traoré Sunderland Actif 145 / 132 40% 1 04.02.2027 -
Cameron Archer Southampton Actif 127 / 119 40% 1 04.02.2027 -
Edmund Nuhu BA All Stars Actif 61 / 92 40% 2 03.02.2027 -
Abraham Paintsil Hasaacas Actif 81 / 95 40% 2 03.02.2027 -
Gianluca Scamacca Atalanta Actif 162 / 141 40% 1 03.02.2027 -
Thomas Atiemo Wa All Stars Actif 84 / 74 40% 3 01.02.2027 -
Dávid Strelec Middlesbrough Actif 131 / 141 40% 1 31.01.2027 -
Lamine Cissé Peterborough United Actif 115 / 122 40% 1 28.01.2027 -
Christos Mouzakitis Hull City Actif 124 / 142 40% 4 26.01.2027 -
Patrick Agyemang Derby County Actif 134 / 121 40% 2 23.01.2027 -
Oli McBurnie Hull City Actif 142 / 134 40% 1 23.01.2027 -
Mihailo Ivanović Millwall Actif 119 / 123 40% 1 22.01.2027 -
Edmund Inusah WAFA Actif 66 / 93 40% 1 21.01.2027 -
Taras Mykhavko Dynamo Kyiv Actif 145 / 119 40% 1 19.01.2027 -
Richard Koné Queens Park Rangers Actif 123 / 128 40% 3 16.01.2027 -
Charlie Kelman Charlton Athletic Actif 100 / 113 40% 1 14.01.2027 -
Zech Obiero Harrogate Town Actif 97 / 87 40% 1 13.01.2027 -
Shea Lacey Millwall Actif 119 / 133 40% 1 13.01.2027 -
Lukas Nmecha Leeds United Actif 134 / 122 40% 1 13.01.2027 -
Carlton Morris Derby County Actif 120 / 117 40% 1 12.01.2027 -
Darius Lane Brighton Actif 93 / 83 40% 1 10.01.2027 -
Riley Owen Wycombe Wanderers Actif 108 / 112 40% 1 09.01.2027 -
Brandon Khela Peterborough United Actif 109 / 94 40% 1 08.01.2027 -
Rumarn Burrell Queens Park Rangers Actif 132 / 123 40% 1 06.01.2027 -
Ronan Kpakio Brentford Actif 116 / 122 40% 1 06.01.2027 -
David Ozoh Derby County Actif 114 / 133 40% 1 05.01.2027 -
Maeson King Blackpool Actif 114 / 102 40% 1 03.01.2027 -
Elijah Adebayo Luton Town Actif 129 / 132 40% 1 02.01.2027 -
Mathias Jørgensen Blackburn Rovers Actif 108 / 124 40% 1 31.12.2026 -
Josh Coburn Millwall Actif 110 / 128 40% 1 30.12.2026 -
Karlan Grant West Bromwich Albion Actif 128 / 114 40% 1 30.12.2026 -
Caleb Yirenkyi Coventry City Actif 121 / 131 40% 1 26.12.2026 -
Joel McGregor Swindon Town Actif 90 / 102 40% 1 23.12.2026 -
Veljko Birmančević Ferencvaros Actif 132 / 127 40% 2 22.12.2026 -
Moussa Yeo Swansea City Actif 120 / 123 40% 1 19.12.2026 -
David Miculescu FCSB Actif 141 / 125 40% 1 18.12.2026 -
Samuel Kalu Botev Plovdiv Actif 106 / 112 40% 1 18.12.2026 -
Chinedu Geoffrey Krylya Sovetov Actif 137 / 111 40% 2 17.12.2026 -
Santiago Pierotti Lecce Actif 117 / 140 40% 1 15.12.2026 -
Etiosa Ighodaro Kaizer Chiefs Actif 128 / 108 40% 1 14.12.2026 -
Mbekezeli Mbokazi Chicago Fire Actif 117 / 134 40% 1 12.12.2026 -
Alonso Martínez NK Osijek Actif 139 / 117 40% 2 11.12.2026 -
Korede Osundina Casa Pia Actif 107 / 112 40% 1 11.12.2026 -
Guilherme Houston Dynamo Actif 131 / 115 40% 4 05.12.2026 -
Matías Fernández-Pardo Newcastle United Actif 144 / 147 40% 2 02.12.2026 -
Sergio Castillo Cortulua Actif 91 / 118 40% 1 26.11.2026 -
Josh Wynder Benfica Actif 97 / 121 40% 1 25.11.2026 -
Ammar Ramadan DAC Dunajska Streda Actif 107 / 136 40% 1 22.11.2026 -
Seedy Jatta Sturm Graz Actif 124 / 125 40% 1 20.11.2026 -
Troy Parrott Betis Actif 137 / 147 40% 1 18.11.2026 -
Josh Sargent Toronto FC Actif 142 / 121 40% 6 17.11.2026 -
Simphiwe Selepe Orlando Pirates Actif 126 / 127 40% 1 16.11.2026 -
Mojmír Chytil Hajduk Split Actif 118 / 147 40% 1 15.11.2026 -
Dario Vizinger NK Maribor Actif 117 / 122 40% 1 15.11.2026 -
Prince Owusu CF Montreal Actif 131 / 113 40% 5 13.11.2026 -
Luther Ngcobo Ajax Cape Town Actif 79 / 111 40% 1 12.11.2026 -
Jorrel Hato Chelsea Actif 134 / 158 40% 1 12.11.2026 -
Reuell Walters Luton Town Actif 124 / 117 40% 1 08.11.2026 -
Maurice Malone Minnesota United FC Actif 132 / 118 40% 3 06.11.2026 -
Marin Benko Zadar Actif 116 / 122 40% 1 03.11.2026 -
Emmanuel Sabbi Vancouver Whitecaps Actif 112 / 119 40% 1 02.11.2026 -
Wessam Abou Ali Columbus Crew Actif 132 / 126 40% 4 31.10.2026 -
Matej Trusa DAC Dunajska Streda Actif 131 / 115 40% 1 26.10.2026 -
Denis Bouanga Los Angeles Football Club Actif 130 / 132 40% 2 25.10.2026 -
Cheikh Sabaly Vancouver Whitecaps Actif 138 / 120 40% 2 23.10.2026 -
Armstrong Oko-Flex Levski Actif 100 / 121 40% 1 22.10.2026 -
Brayan Gil Baltika Actif 141 / 125 40% 2 21.10.2026 -
Iqraam Rayners Mamelodi Sundowns Actif 126 / 124 40% 2 17.10.2026 -
Bongokuhle Hlongwane Minnesota United FC Actif 111 / 126 40% 3 16.10.2026 -
Jordan Morris Seattle Sounders Actif 119 / 120 40% 2 15.10.2026 -
Milan Iloski Philadelphia Union Actif 115 / 115 40% 1 10.10.2026 -
Camilo Durán Bloemfontein Celtic Actif 102 / 125 40% 3 09.10.2026 -
Olaniyi Saheed Kwara United Actif 99 / 102 40% 1 04.10.2026 -
Jeremy Ebobisse Los Angeles Football Club Actif 117 / 120 40% 2 02.10.2026 -
Bojan Radulović Huddersfield Town Actif 118 / 121 40% 1 01.10.2026 -
Brandon Vázquez Austin FC Actif 109 / 125 40% 1 01.10.2026 -
Kyogo Furuhashi LA Galaxy Actif 123 / 125 40% 1 30.09.2026 -
Chisom Ogbun Warri Wolves Actif 91 / 80 40% 1 29.09.2026 -
Lebo Mothiba Mamelodi Sundowns Actif 126 / 108 40% 1 24.09.2026 -
Gady Beyuku Blackburn Rovers Actif 116 / 118 40% 2 21.09.2026 -
Lewis Morgan Toronto FC Actif 128 / 116 40% 1 18.09.2026 -
Daniel Kelly Derby County Actif 118 / 120 40% 1 14.09.2026 -
Maldini Kacurri Grimsby Town Actif 78 / 103 40% 1 14.09.2026 -
Kian Noble Manchester City Actif 87 / 90 40% 1 13.09.2026 -
Ramiro Ruiz Rodríguez Atlético Tucumán Actif 107 / 119 40% 1 10.09.2026 -
Williams Mahlangu SuperSport United Actif 118 / 121 40% 1 01.08.2026 -